Terminal Aerodrome Forecast
Issued by NWS

Current Version | Previous Version | Text Only | Print | Product List | Glossary On
Versions: 1 2 3 4 5 6 7 8 9 10 11 12 13
000
FTUS42 KMLB 261727
TAFFPR
TAF
KFPR 261727Z 2618/2718 09008KT P6SM VCSH SCT030 SCT100 BKN250
     FM262100 11009KT P6SM VCTS SCT035CB BKN100
     FM270100 14003KT P6SM FEW030 SCT120 BKN250
     FM271400 25004KT P6SM SCT025=

USA.gov is the U.S. government's official web portal to all federal, state and local government web resources and services.